Terminal Aerodrome Forecast
Issued by NWS

Home | Current Version | Previous Version | Text Only | Print | Product List | Glossary On
Versions: 1 2 3 4 5 6 7 8 9 10 11 12 13 14 15 16 17 18 19 20 21 22 23 24 25 26 27 28 29
000
FTUS43 KGRB 252320
TAFCWA
TAF
KCWA 252320Z 2600/2624 25015G25KT P6SM SCT030
      TEMPO 2600/2604 BKN025
     FM260400 26009G15KT P6SM FEW030
     FM261000 25005KT P6SM SKC=

USA.gov is the U.S. government's official web portal to all federal, state and local government web resources and services.